Time;durP1;ratioP1;P1;durP2;ratioP2;P2;SDS_P1;SDS_P2;PMS_P1;PMS_P2;Temp;Humidity;BMP_temperature;BMP_pressure;BME280_temperature;BME280_humidity;BME280_pressure;Samples;Min_cycle;Max_cycle;Signal;HPM_P1;HPM_P2
2023/10/19 00:01:17;;;;;;;4.55;2.58;;;11.40;74.90;;;;;;5031198;28;20045;-68
2023/10/19 00:03:44;;;;;;;4.25;2.45;;;11.40;75.00;;;;;;5031771;28;20026;-69
2023/10/19 00:06:11;;;;;;;4.60;2.35;;;11.40;75.20;;;;;;5032674;28;20095;-69
2023/10/19 00:08:44;;;;;;;9.18;3.78;;;11.40;75.20;;;;;;5031781;28;20544;-68
2023/10/19 00:11:21;;;;;;;5.80;3.08;;;11.40;75.20;;;;;;5032329;28;20052;-69
2023/10/19 00:13:54;;;;;;;7.07;2.72;;;11.40;75.30;;;;;;5031980;28;20033;-68
2023/10/19 00:16:25;;;;;;;7.60;3.67;;;11.40;75.30;;;;;;5031214;28;20041;-69
2023/10/19 00:18:52;;;;;;;3.95;2.00;;;11.40;75.00;;;;;;5031777;28;20037;-69
2023/10/19 00:21:25;;;;;;;4.47;3.38;;;11.50;75.70;;;;;;5031802;28;20038;-69
2023/10/19 00:23:57;;;;;;;4.78;3.05;;;11.40;75.70;;;;;;5031679;28;20482;-69
2023/10/19 00:26:25;;;;;;;5.00;2.80;;;11.40;75.60;;;;;;5032615;28;20064;-69
2023/10/19 00:29:00;;;;;;;5.68;3.00;;;11.30;75.50;;;;;;5031158;28;20030;-69
2023/10/19 00:31:27;;;;;;;5.90;3.83;;;11.40;75.00;;;;;;5030431;28;20045;-69
2023/10/19 00:33:54;;;;;;;4.22;3.00;;;11.30;75.30;;;;;;5031295;28;20025;-68
2023/10/19 00:36:22;;;;;;;5.40;2.83;;;11.30;74.90;;;;;;5030848;28;20040;-69
2023/10/19 00:41:21;;;;;;;5.38;2.97;;;11.30;74.70;;;;;;5030452;28;20044;-69
2023/10/19 00:43:58;;;;;;;3.90;1.92;;;11.30;75.20;;;;;;5031414;28;20568;-69
2023/10/19 00:46:32;;;;;;;3.05;2.40;;;11.30;75.00;;;;;;5030965;28;20363;-69
2023/10/19 00:49:01;;;;;;;3.65;2.38;;;11.40;75.00;;;;;;5031457;28;20483;-68
2023/10/19 00:52:02;;;;;;;6.00;3.15;;;11.40;74.60;;;;;;5031459;28;20406;-69
2023/10/19 00:57:19;;;;;;;4.63;2.50;;;11.40;74.50;;;;;;5030948;28;20453;-69
2023/10/19 00:59:53;;;;;;;4.85;3.15;;;11.40;74.40;;;;;;5031331;28;20034;-69
2023/10/19 01:05:13;;;;;;;4.88;2.80;;;11.40;74.70;;;;;;5031079;28;20038;-68
2023/10/19 01:07:44;;;;;;;4.18;1.88;;;11.40;74.60;;;;;;5032321;28;20549;-69
2023/10/19 01:12:59;;;;;;;5.00;2.43;;;11.40;74.70;;;;;;5031438;28;20394;-69
2023/10/19 01:17:57;;;;;;;8.63;4.97;;;11.50;74.80;;;;;;5031246;28;20092;-69
2023/10/19 01:23:25;;;;;;;6.47;4.95;;;11.60;74.70;;;;;;5030717;28;20053;-69
2023/10/19 01:26:12;;;;;;;5.47;3.53;;;11.60;74.60;;;;;;5030702;28;20037;-69
2023/10/19 01:28:47;;;;;;;7.65;3.10;;;11.70;74.60;;;;;;5031014;28;20084;-69
2023/10/19 01:31:22;;;;;;;4.22;2.78;;;11.70;74.40;;;;;;5029974;28;20516;-69
2023/10/19 01:33:50;;;;;;;5.00;2.47;;;11.70;74.20;;;;;;5030612;28;20042;-68
2023/10/19 01:38:48;;;;;;;8.75;4.38;;;11.80;74.40;;;;;;5031067;28;20041;-69
2023/10/19 01:41:21;;;;;;;8.15;5.57;;;11.70;74.30;;;;;;5032806;28;20053;-69
2023/10/19 01:43:53;;;;;;;5.72;4.50;;;11.80;74.60;;;;;;5035862;28;20037;-69
2023/10/19 01:46:31;;;;;;;7.28;3.25;;;11.70;74.70;;;;;;5035213;28;20457;-69
2023/10/19 01:48:57;;;;;;;4.60;3.20;;;11.70;74.80;;;;;;5034624;28;20041;-69
2023/10/19 01:51:29;;;;;;;4.13;1.85;;;11.60;75.00;;;;;;5033158;28;20049;-69
2023/10/19 01:54:14;;;;;;;3.45;2.17;;;11.60;75.10;;;;;;5034465;28;20033;-69
2023/10/19 01:56:42;;;;;;;4.00;2.90;;;11.50;75.40;;;;;;5034069;28;20029;-69
2023/10/19 01:59:09;;;;;;;4.20;1.98;;;11.50;75.40;;;;;;5035582;28;20037;-69
2023/10/19 02:01:37;;;;;;;9.25;3.47;;;11.50;75.30;;;;;;5033359;28;20038;-69
2023/10/19 02:04:05;;;;;;;4.38;3.08;;;11.50;75.20;;;;;;5034416;28;20470;-67
2023/10/19 02:06:36;;;;;;;3.05;1.90;;;11.50;75.00;;;;;;5033651;28;20095;-66
2023/10/19 02:09:22;;;;;;;3.30;2.40;;;11.50;75.00;;;;;;5034319;28;20091;-67
2023/10/19 02:11:53;;;;;;;5.47;2.40;;;11.50;75.10;;;;;;5034321;28;20039;-69
2023/10/19 02:14:20;;;;;;;5.70;3.53;;;11.50;75.00;;;;;;5034229;28;20071;-67
2023/10/19 02:16:52;;;;;;;5.15;3.45;;;11.40;75.00;;;;;;5033424;28;20052;-67
2023/10/19 02:19:20;;;;;;;7.90;4.38;;;11.40;75.00;;;;;;5034138;28;20028;-66
2023/10/19 02:22:08;;;;;;;6.72;3.63;;;11.40;75.00;;;;;;5032955;28;20048;-67
2023/10/19 02:24:34;;;;;;;6.45;4.00;;;11.40;75.20;;;;;;5034970;28;20038;-67
2023/10/19 02:27:04;;;;;;;4.60;2.75;;;11.40;75.10;;;;;;5033363;28;20053;-66
2023/10/19 02:29:30;;;;;;;5.15;3.35;;;11.40;74.90;;;;;;5017812;28;20128;-66
2023/10/19 02:31:57;;;;;;;3.80;2.92;;;11.50;74.90;;;;;;5034238;28;20048;-67
2023/10/19 02:34:23;;;;;;;3.90;2.65;;;11.50;74.80;;;;;;5033487;28;20498;-67
2023/10/19 02:36:49;;;;;;;4.18;2.90;;;11.40;74.20;;;;;;5033254;28;20046;-67
2023/10/19 02:42:02;;;;;;;8.13;2.97;;;11.40;74.30;;;;;;5033020;28;20055;-67
2023/10/19 02:44:30;;;;;;;4.80;3.10;;;11.40;74.90;;;;;;5034569;28;20040;-67
2023/10/19 02:47:00;;;;;;;4.53;2.85;;;11.50;74.90;;;;;;5034278;28;20033;-67
2023/10/19 02:49:29;;;;;;;6.47;3.60;;;11.50;74.30;;;;;;5034757;28;20052;-67
2023/10/19 02:51:58;;;;;;;6.15;2.80;;;11.40;74.70;;;;;;5031766;28;20053;-67
2023/10/19 02:54:24;;;;;;;5.10;2.55;;;11.40;74.90;;;;;;5034301;28;20372;-67
2023/10/19 02:56:53;;;;;;;;;;;11.40;75.00;;;;;;5034755;28;20041;-67
2023/10/19 02:59:24;;;;;;;5.50;2.28;;;11.40;74.70;;;;;;5033243;28;20278;-66
2023/10/19 03:02:00;;;;;;;3.10;2.40;;;11.50;74.60;;;;;;5032321;28;20095;-67
2023/10/19 03:04:28;;;;;;;4.05;2.63;;;11.50;74.60;;;;;;5033016;28;20047;-67
2023/10/19 03:06:57;;;;;;;3.80;2.60;;;11.50;74.60;;;;;;5032442;28;20064;-67
2023/10/19 03:14:53;;;;;;;3.90;2.30;;;11.40;74.90;;;;;;5033001;28;20056;-69
2023/10/19 03:17:19;;;;;;;4.57;1.83;;;11.40;74.80;;;;;;5033912;28;20033;-67
2023/10/19 03:19:46;;;;;;;4.93;3.15;;;11.40;74.90;;;;;;5032883;28;20509;-67
2023/10/19 03:22:12;;;;;;;4.97;3.35;;;11.40;74.90;;;;;;5031837;28;20475;-67
2023/10/19 03:24:40;;;;;;;4.50;2.30;;;11.50;75.10;;;;;;5032580;28;20083;-67
2023/10/19 03:27:13;;;;;;;5.60;3.13;;;11.40;75.10;;;;;;5032354;28;20399;-66
2023/10/19 03:29:40;;;;;;;4.18;2.58;;;11.50;74.90;;;;;;5032802;28;20033;-67
2023/10/19 03:32:07;;;;;;;4.75;2.10;;;11.50;74.80;;;;;;5015239;28;20052;-67
2023/10/19 03:34:34;;;;;;;3.03;1.85;;;11.50;75.00;;;;;;5033744;28;20033;-67
2023/10/19 03:37:05;;;;;;;7.18;2.30;;;11.60;74.80;;;;;;5033268;28;20060;-67
2023/10/19 03:39:55;;;;;;;5.75;3.40;;;11.60;74.80;;;;;;5032696;28;20025;-66
2023/10/19 03:42:25;;;;;;;3.65;2.55;;;11.60;74.70;;;;;;5033147;28;20049;-67
2023/10/19 03:47:25;;;;;;;5.43;2.28;;;11.70;75.00;;;;;;5032928;28;20071;-67
2023/10/19 03:49:51;;;;;;;3.78;2.10;;;11.70;74.20;;;;;;5016861;28;20107;-66
2023/10/19 03:54:43;;;;;;;;;;;11.70;74.20;;;;;;5032679;28;20459;-67
2023/10/19 03:57:12;;;;;;;6.47;3.38;;;11.80;74.00;;;;;;5031705;28;20369;-66
2023/10/19 03:59:39;;;;;;;4.80;2.75;;;11.80;74.30;;;;;;5032125;28;20029;-67
2023/10/19 04:04:51;;;;;;;5.28;3.72;;;11.80;74.80;;;;;;5031043;28;20044;-66
2023/10/19 04:07:21;;;;;;;4.88;2.63;;;11.80;74.80;;;;;;5031634;28;20030;-66
2023/10/19 04:12:54;;;;;;;4.43;2.15;;;11.70;75.40;;;;;;5031608;28;20060;-67
2023/10/19 04:15:20;;;;;;;2.95;1.65;;;11.60;76.10;;;;;;5031159;28;20112;-67
2023/10/19 04:17:48;;;;;;;3.65;2.15;;;11.50;76.20;;;;;;5031702;28;20413;-67
2023/10/19 04:23:21;;;;;;;5.43;3.15;;;11.40;76.40;;;;;;5032857;28;20060;-67
2023/10/19 04:25:47;;;;;;;3.55;2.55;;;11.30;75.70;;;;;;5031049;28;20116;-67
2023/10/19 04:28:14;;;;;;;6.07;2.97;;;11.30;76.40;;;;;;5031750;28;20042;-66
2023/10/19 04:30:41;;;;;;;3.30;1.65;;;11.30;76.50;;;;;;5030352;28;20478;-67
2023/10/19 04:33:10;;;;;;;;;;;11.30;76.60;;;;;;5032231;28;20474;-66
2023/10/19 04:35:37;;;;;;;3.08;2.17;;;11.30;76.30;;;;;;5030770;28;19921;-67
2023/10/19 04:38:08;;;;;;;4.95;3.17;;;11.20;76.10;;;;;;5031591;28;20490;-66
2023/10/19 04:40:35;;;;;;;5.00;2.80;;;11.20;76.20;;;;;;5030676;28;20053;-67
2023/10/19 04:43:06;;;;;;;4.22;2.67;;;11.20;76.40;;;;;;5030794;28;20056;-67
2023/10/19 04:45:32;;;;;;;4.03;2.45;;;11.20;76.20;;;;;;5031570;28;20048;-67
2023/10/19 04:47:58;;;;;;;4.47;2.70;;;11.20;75.50;;;;;;5030575;28;20367;-67
2023/10/19 04:50:24;;;;;;;4.35;2.60;;;11.30;76.30;;;;;;5031766;28;20500;-66
2023/10/19 04:52:51;;;;;;;6.07;3.60;;;11.30;76.30;;;;;;5031404;28;20128;-66
2023/10/19 04:55:17;;;;;;;6.85;3.60;;;11.30;76.50;;;;;;5030734;28;20076;-66
2023/10/19 04:57:43;;;;;;;5.35;3.17;;;11.30;76.70;;;;;;5032321;28;20120;-67
2023/10/19 05:00:13;;;;;;;4.25;2.55;;;11.20;76.70;;;;;;5031832;28;20041;-67
2023/10/19 05:02:39;;;;;;;11.98;4.32;;;11.20;76.70;;;;;;5031283;28;20490;-67
2023/10/19 05:05:05;;;;;;;4.10;2.33;;;11.20;76.10;;;;;;5031660;28;20069;-67
2023/10/19 05:07:33;;;;;;;3.25;2.33;;;11.20;76.10;;;;;;5031155;28;20537;-66
2023/10/19 05:09:59;;;;;;;5.07;2.92;;;11.30;76.90;;;;;;5014856;28;20483;-67
2023/10/19 05:12:25;;;;;;;;;;;11.30;76.70;;;;;;5032165;28;20045;-67
2023/10/19 05:14:51;;;;;;;6.95;3.70;;;11.30;76.50;;;;;;5032071;28;20317;-67
2023/10/19 05:17:21;;;;;;;4.28;2.63;;;11.30;76.60;;;;;;5018341;28;20049;-67
2023/10/19 05:19:47;;;;;;;6.63;3.28;;;11.30;76.80;;;;;;5036347;28;20029;-67
2023/10/19 05:22:12;;;;;;;3.90;3.05;;;11.30;76.90;;;;;;5017576;28;20111;-67
2023/10/19 05:24:38;;;;;;;4.07;2.67;;;11.30;76.80;;;;;;5035972;28;20029;-67
2023/10/19 05:27:05;;;;;;;12.80;9.30;;;11.30;76.70;;;;;;5036077;28;20050;-67
2023/10/19 05:29:51;;;;;;;12.77;8.10;;;11.30;76.90;;;;;;5035383;28;20446;-67
2023/10/19 05:32:17;;;;;;;6.65;3.75;;;11.30;77.10;;;;;;5035472;28;20041;-69
2023/10/19 05:34:43;;;;;;;7.72;3.92;;;11.30;76.90;;;;;;5035597;28;20033;-67
2023/10/19 05:37:10;;;;;;;5.05;3.42;;;11.30;76.70;;;;;;5034414;28;20053;-67
2023/10/19 05:39:36;;;;;;;8.23;2.85;;;11.40;76.70;;;;;;5036021;28;20410;-67
2023/10/19 05:42:02;;;;;;;3.20;2.33;;;11.50;76.60;;;;;;5033741;28;20046;-67
2023/10/19 05:44:30;;;;;;;2.50;1.65;;;11.60;76.20;;;;;;5035686;28;20030;-67
2023/10/19 05:46:58;;;;;;;4.28;2.80;;;11.60;76.00;;;;;;5034133;28;20045;-67
2023/10/19 05:49:24;;;;;;;6.55;3.47;;;11.60;75.10;;;;;;5034576;28;20032;-67
2023/10/19 05:51:51;;;;;;;5.60;2.95;;;11.70;75.70;;;;;;5034725;28;20053;-67
2023/10/19 05:54:17;;;;;;;5.63;1.95;;;11.80;75.30;;;;;;5034446;28;20029;-67
2023/10/19 05:56:43;;;;;;;2.85;2.05;;;11.90;75.90;;;;;;5035408;28;20076;-67
2023/10/19 05:59:10;;;;;;;4.38;2.20;;;12.00;75.80;;;;;;5035594;28;20061;-67
2023/10/19 06:01:41;;;;;;;4.63;2.17;;;12.00;75.50;;;;;;5043558;28;20385;-67
2023/10/19 06:04:07;;;;;;;3.60;2.15;;;12.00;75.30;;;;;;5054950;28;20065;-67
2023/10/19 06:06:33;;;;;;;4.68;2.72;;;12.00;75.30;;;;;;5053492;28;20068;-67
2023/10/19 06:09:00;;;;;;;5.75;2.25;;;12.10;75.60;;;;;;5054194;28;20473;-67
2023/10/19 06:11:32;;;;;;;7.20;3.28;;;12.10;75.40;;;;;;5052931;28;20048;-67
2023/10/19 06:13:59;;;;;;;5.97;3.53;;;12.20;75.10;;;;;;5054295;28;20111;-67
2023/10/19 06:16:25;;;;;;;6.65;3.58;;;12.40;74.30;;;;;;5054631;28;20037;-67
2023/10/19 06:18:51;;;;;;;4.35;2.90;;;12.50;74.70;;;;;;5053925;28;20029;-67
2023/10/19 06:21:36;;;;;;;3.67;2.00;;;12.60;74.60;;;;;;5052991;28;20106;-67
2023/10/19 06:24:02;;;;;;;2.70;1.83;;;12.60;74.60;;;;;;5053769;28;20485;-67
2023/10/19 06:26:28;;;;;;;4.93;3.17;;;12.70;74.70;;;;;;5053832;28;20041;-67
2023/10/19 06:29:02;;;;;;;;;;;12.80;74.60;;;;;;5054202;28;20098;-66
2023/10/19 06:31:28;;;;;;;6.90;3.15;;;12.90;74.50;;;;;;5054168;28;19952;-69
2023/10/19 06:33:54;;;;;;;3.33;1.95;;;12.90;74.40;;;;;;5054606;28;20033;-66
2023/10/19 06:36:20;;;;;;;3.95;2.08;;;12.90;74.70;;;;;;5054381;28;20037;-67
2023/10/19 06:38:46;;;;;;;4.13;2.83;;;13.00;74.70;;;;;;5053548;28;20043;-67
2023/10/19 06:41:30;;;;;;;3.75;2.63;;;13.00;74.90;;;;;;5052545;28;20555;-67
2023/10/19 06:43:58;;;;;;;3.78;2.35;;;13.00;75.20;;;;;;5053376;28;20079;-67
2023/10/19 06:46:24;;;;;;;2.60;1.33;;;13.10;74.70;;;;;;5054215;28;20040;-66
2023/10/19 06:48:51;;;;;;;2.42;1.80;;;13.30;74.10;;;;;;5053343;28;20075;-66
2023/10/19 06:51:17;;;;;;;2.22;1.55;;;13.60;73.60;;;;;;5051961;28;20489;-67
2023/10/19 06:53:43;;;;;;;1.83;1.20;;;13.70;73.40;;;;;;5054537;28;20041;-67
2023/10/19 06:56:10;;;;;;;2.20;1.23;;;13.80;72.90;;;;;;5054123;28;20393;-67
2023/10/19 06:58:36;;;;;;;3.47;2.08;;;13.90;72.90;;;;;;5053105;28;20111;-66
2023/10/19 07:01:08;;;;;;;5.60;2.10;;;13.90;73.30;;;;;;5053488;28;20052;-67
2023/10/19 07:03:34;;;;;;;5.00;3.28;;;13.90;73.60;;;;;;5054202;28;20041;-66
2023/10/19 07:06:02;;;;;;;2.72;0.85;;;13.90;73.00;;;;;;5053691;28;20454;-67
2023/10/19 07:08:28;;;;;;;9.43;2.35;;;14.00;73.50;;;;;;5053032;28;20082;-67
2023/10/19 07:10:54;;;;;;;2.08;1.35;;;14.10;73.50;;;;;;5051879;28;20041;-67
2023/10/19 07:13:21;;;;;;;2.28;1.17;;;14.10;73.40;;;;;;5052967;28;20070;-66
2023/10/19 07:15:51;;;;;;;2.70;1.42;;;14.20;73.10;;;;;;5053439;28;20501;-67
2023/10/19 07:18:17;;;;;;;3.28;2.10;;;14.20;72.90;;;;;;5054066;28;20100;-67
2023/10/19 07:20:48;;;;;;;;;;;14.30;73.00;;;;;;5052164;28;20394;-67
2023/10/19 07:23:26;;;;;;;1.65;0.80;;;14.30;73.00;;;;;;5053996;28;19948;-67
2023/10/19 07:28:39;;;;;;;2.38;1.30;;;14.50;72.40;;;;;;5053038;28;20033;-67
2023/10/19 07:31:12;;;;;;;;;;;14.60;72.00;;;;;;5052200;28;20505;-67
2023/10/19 07:33:42;;;;;;;2.58;1.08;;;14.60;72.20;;;;;;5036747;28;19923;-67
2023/10/19 07:36:14;;;;;;;2.13;0.60;;;14.60;72.10;;;;;;5053132;28;20068;-67
2023/10/19 07:38:42;;;;;;;1.35;0.88;;;14.70;72.40;;;;;;5053801;28;20028;-67
2023/10/19 07:41:09;;;;;;;1.17;0.68;;;14.70;71.80;;;;;;5052810;28;20493;-67
2023/10/19 07:43:36;;;;;;;2.35;1.25;;;14.70;72.40;;;;;;5052350;28;20049;-67
2023/10/19 07:46:02;;;;;;;2.15;1.25;;;14.80;72.50;;;;;;5052652;28;20041;-67
2023/10/19 07:48:28;;;;;;;;;;;14.80;72.50;;;;;;5052725;28;20025;-67
2023/10/19 07:50:55;;;;;;;1.60;0.93;;;14.80;72.50;;;;;;5052194;28;20016;-66
2023/10/19 07:53:22;;;;;;;3.17;1.95;;;14.70;72.20;;;;;;5035694;28;20070;-67
2023/10/19 07:55:48;;;;;;;1.75;1.20;;;14.80;71.70;;;;;;5051619;28;20037;-67
2023/10/19 07:58:15;;;;;;;3.60;1.70;;;14.80;71.60;;;;;;5052245;28;20416;-67
2023/10/19 08:00:42;;;;;;;1.70;1.15;;;14.90;71.70;;;;;;5052028;28;20044;-67
2023/10/19 08:03:10;;;;;;;2.10;0.93;;;15.10;71.20;;;;;;5053227;28;20029;-67
2023/10/19 08:05:38;;;;;;;2.67;1.75;;;15.20;70.50;;;;;;5052335;28;20072;-67
2023/10/19 08:08:05;;;;;;;1.73;1.33;;;15.30;70.30;;;;;;5052052;28;20037;-67
2023/10/19 08:10:31;;;;;;;3.13;2.05;;;15.40;70.30;;;;;;5052215;28;20034;-67
2023/10/19 08:12:58;;;;;;;1.85;1.17;;;15.50;69.90;;;;;;5051694;28;20037;-67
2023/10/19 08:15:26;;;;;;;3.08;2.60;;;15.70;69.60;;;;;;5052301;28;20036;-67
2023/10/19 08:17:54;;;;;;;1.50;0.85;;;15.70;70.10;;;;;;5051765;28;20109;-67
2023/10/19 08:20:27;;;;;;;2.35;1.42;;;15.80;69.20;;;;;;5051856;28;20033;-67
2023/10/19 08:26:05;;;;;;;;;;;16.80;66.40;;;;;;5051914;28;20036;-67
2023/10/19 08:28:32;;;;;;;1.70;1.25;;;16.80;66.20;;;;;;5051578;28;20042;-67
2023/10/19 08:31:02;;;;;;;1.08;0.65;;;16.80;66.20;;;;;;5051825;28;20616;-67
2023/10/19 08:33:29;;;;;;;1.88;0.90;;;17.20;65.60;;;;;;5052564;28;20033;-67
2023/10/19 08:35:56;;;;;;;1.75;0.95;;;18.20;61.70;;;;;;5050674;28;20029;-67
2023/10/19 08:38:23;;;;;;;1.15;0.82;;;19.40;59.70;;;;;;5052716;28;20053;-67
2023/10/19 08:40:50;;;;;;;3.13;1.38;;;19.60;57.80;;;;;;5050281;28;20048;-67
2023/10/19 08:43:18;;;;;;;0.98;0.80;;;20.70;55.60;;;;;;5051223;28;20082;-67
2023/10/19 08:45:45;;;;;;;2.03;1.27;;;21.60;53.20;;;;;;5050412;28;20108;-67
2023/10/19 08:48:11;;;;;;;6.90;2.42;;;21.70;53.10;;;;;;5051217;28;20110;-67
2023/10/19 08:50:38;;;;;;;1.80;0.95;;;21.30;53.70;;;;;;5051115;28;20045;-67
2023/10/19 08:53:19;;;;;;;3.58;1.75;;;21.00;54.80;;;;;;5052421;28;20041;-67
2023/10/19 08:55:45;;;;;;;1.00;0.60;;;20.80;55.40;;;;;;5035546;28;20041;-67
2023/10/19 08:58:11;;;;;;;;;;;21.10;54.60;;;;;;5053054;28;20481;-67
2023/10/19 09:00:56;;;;;;;0.95;0.43;;;21.30;53.60;;;;;;5050228;28;19936;-67
2023/10/19 09:03:24;;;;;;;2.15;1.33;;;21.20;53.90;;;;;;5052232;28;20047;-67
2023/10/19 09:05:50;;;;;;;1.52;0.95;;;20.90;54.20;;;;;;5050252;28;20095;-67
2023/10/19 09:08:18;;;;;;;2.30;1.55;;;20.60;54.60;;;;;;5052421;28;20071;-67
2023/10/19 09:10:45;;;;;;;1.23;0.80;;;20.30;55.40;;;;;;5033400;28;20041;-67
2023/10/19 09:13:12;;;;;;;1.70;1.30;;;20.20;55.80;;;;;;5050998;28;20068;-67
2023/10/19 09:15:41;;;;;;;1.35;0.75;;;20.30;55.40;;;;;;5051716;28;20037;-67
2023/10/19 09:21:11;;;;;;;1.40;0.85;;;20.50;55.20;;;;;;5051334;28;20048;-68
2023/10/19 09:23:38;;;;;;;2.08;1.05;;;20.70;54.60;;;;;;5050858;28;20079;-67
2023/10/19 09:26:07;;;;;;;1.55;0.73;;;20.80;54.10;;;;;;5050404;28;20119;-67
2023/10/19 09:28:36;;;;;;;1.17;0.75;;;21.00;53.40;;;;;;5052241;28;20045;-67
2023/10/19 09:31:03;;;;;;;5.65;2.25;;;21.20;53.40;;;;;;5051163;28;20543;-67
2023/10/19 09:33:33;;;;;;;1.83;1.15;;;21.10;52.60;;;;;;5050623;28;20155;-67
2023/10/19 09:36:04;;;;;;;1.63;1.35;;;21.00;53.60;;;;;;5050202;28;20041;-67
2023/10/19 09:38:30;;;;;;;0.75;0.65;;;20.90;54.30;;;;;;5050930;28;20072;-67
2023/10/19 09:40:59;;;;;;;4.60;1.70;;;20.60;55.00;;;;;;5051215;28;20524;-67
2023/10/19 09:43:50;;;;;;;1.15;0.95;;;20.40;55.40;;;;;;5051916;28;20060;-67
2023/10/19 09:46:39;;;;;;;0.90;0.80;;;20.10;56.00;;;;;;5050064;28;20033;-67
2023/10/19 09:49:06;;;;;;;2.25;0.90;;;20.00;56.30;;;;;;5034328;28;20033;-67
2023/10/19 09:51:34;;;;;;;1.77;0.90;;;20.10;56.70;;;;;;5049728;28;20052;-67
2023/10/19 09:54:21;;;;;;;0.90;0.63;;;20.10;56.80;;;;;;5050697;28;20037;-67
2023/10/19 09:56:52;;;;;;;;;;;20.20;56.90;;;;;;5052053;28;20540;-67
2023/10/19 09:59:39;;;;;;;1.08;0.52;;;20.40;56.20;;;;;;5033990;28;20407;-67
2023/10/19 10:02:25;;;;;;;1.35;0.95;;;20.60;55.40;;;;;;5051036;28;20102;-67
2023/10/19 10:04:52;;;;;;;0.68;0.45;;;20.80;55.30;;;;;;5053856;28;20090;-67
2023/10/19 10:07:17;;;;;;;;;;;20.90;55.40;;;;;;5055932;28;20065;-67
2023/10/19 10:09:44;;;;;;;1.25;0.90;;;21.00;54.90;;;;;;5055751;28;19916;-67
2023/10/19 10:12:28;;;;;;;1.33;0.95;;;21.10;54.90;;;;;;5052937;28;20052;-67
2023/10/19 10:15:16;;;;;;;1.98;1.02;;;21.20;54.70;;;;;;5055128;28;20119;-67
2023/10/19 10:17:42;;;;;;;1.63;0.88;;;21.20;54.80;;;;;;5053880;28;20037;-67
2023/10/19 10:20:46;;;;;;;;;;;21.10;54.80;;;;;;5053718;28;20512;-67
2023/10/19 10:23:34;;;;;;;1.08;0.73;;;21.00;55.30;;;;;;5055074;28;19921;-66
2023/10/19 10:26:00;;;;;;;2.65;0.52;;;21.10;55.40;;;;;;5053336;28;20497;-67
2023/10/19 10:28:28;;;;;;;0.80;0.60;;;21.30;54.70;;;;;;5053937;28;20041;-67
2023/10/19 10:31:32;;;;;;;2.70;1.30;;;21.50;54.60;;;;;;5053991;28;20044;-67
2023/10/19 10:33:58;;;;;;;1.85;1.60;;;21.60;54.40;;;;;;5053353;28;20420;-66
2023/10/19 10:36:26;;;;;;;2.92;1.60;;;21.70;54.10;;;;;;5054295;28;20049;-67
2023/10/19 10:38:52;;;;;;;3.22;1.88;;;21.60;54.10;;;;;;5054806;28;20466;-66
2023/10/19 10:41:37;;;;;;;;;;;21.60;54.50;;;;;;5053220;28;20824;-67
2023/10/19 10:44:03;;;;;;;2.35;1.60;;;21.60;54.40;;;;;;5053439;28;19923;-67
2023/10/19 10:46:29;;;;;;;2.03;0.93;;;21.60;54.50;;;;;;5052852;28;20044;-67
2023/10/19 10:48:55;;;;;;;;;;;21.70;54.80;;;;;;5055086;28;20029;-67
2023/10/19 10:51:41;;;;;;;1.98;1.33;;;21.80;54.30;;;;;;5053382;28;19943;-66
2023/10/19 10:54:07;;;;;;;1.40;0.70;;;22.00;53.40;;;;;;5054807;28;20108;-69
2023/10/19 10:56:40;;;;;;;;;;;22.00;53.30;;;;;;5054691;28;20124;-68
2023/10/19 10:59:25;;;;;;;0.75;0.60;;;21.70;53.90;;;;;;5053304;28;20289;-67
2023/10/19 11:01:51;;;;;;;1.10;0.82;;;21.60;54.60;;;;;;5053659;28;20041;-66
2023/10/19 11:04:17;;;;;;;;;;;21.50;55.10;;;;;;5053614;28;20036;-67
2023/10/19 11:07:02;;;;;;;2.67;1.17;;;21.50;55.40;;;;;;5053990;28;19925;-67
2023/10/19 11:09:28;;;;;;;2.05;1.15;;;21.50;55.70;;;;;;5053261;28;20113;-67
2023/10/19 11:11:54;;;;;;;1.00;0.70;;;21.50;55.70;;;;;;5051980;28;20080;-69
2023/10/19 11:14:23;;;;;;;1.27;0.98;;;21.50;55.90;;;;;;5052614;28;20493;-69
2023/10/19 11:16:49;;;;;;;0.77;0.38;;;21.40;55.60;;;;;;5053646;28;20129;-67
2023/10/19 11:19:15;;;;;;;;;;;21.30;56.20;;;;;;5054731;28;20025;-66
2023/10/19 11:22:02;;;;;;;1.38;0.73;;;21.30;56.10;;;;;;5053306;28;19920;-67
2023/10/19 11:24:31;;;;;;;3.40;0.88;;;21.20;56.50;;;;;;5052776;28;20120;-67
2023/10/19 11:26:58;;;;;;;1.25;0.82;;;21.30;56.50;;;;;;5036087;28;20095;-67
2023/10/19 11:29:24;;;;;;;;;;;21.20;55.80;;;;;;5053256;28;20044;-66
2023/10/19 11:32:09;;;;;;;2.40;0.98;;;21.20;57.10;;;;;;5053067;28;19921;-67
2023/10/19 11:34:37;;;;;;;0.60;0.47;;;21.20;56.70;;;;;;5053357;28;20033;-67
2023/10/19 11:37:05;;;;;;;0.98;0.60;;;21.20;56.80;;;;;;5053542;28;20043;-69
2023/10/19 11:39:31;;;;;;;1.23;1.10;;;21.20;57.00;;;;;;5052523;28;20029;-67
2023/10/19 11:41:57;;;;;;;;;;;21.30;57.10;;;;;;5053507;28;20128;-67
2023/10/19 11:44:23;;;;;;;1.38;0.47;;;21.40;56.70;;;;;;5052243;28;20420;-67
2023/10/19 11:46:49;;;;;;;;;;;21.40;56.80;;;;;;5053350;28;20048;-67
2023/10/19 11:49:15;;;;;;;1.67;0.88;;;21.50;56.60;;;;;;5053603;28;20333;-66
2023/10/19 11:51:41;;;;;;;0.80;0.73;;;21.50;56.30;;;;;;5034306;28;20057;-67
2023/10/19 11:54:07;;;;;;;;;;;21.50;57.10;;;;;;5053093;28;20032;-67
2023/10/19 11:56:33;;;;;;;3.45;0.80;;;21.60;56.80;;;;;;5034842;28;20675;-67
2023/10/19 11:58:58;;;;;;;;;;;21.60;56.50;;;;;;5053840;28;20482;-66
2023/10/19 12:01:26;;;;;;;0.93;0.70;;;21.60;56.60;;;;;;5052556;28;20387;-66
2023/10/19 12:03:52;;;;;;;1.60;0.55;;;21.60;56.60;;;;;;5052790;28;20040;-69
2023/10/19 12:06:23;;;;;;;;;;;21.50;57.10;;;;;;5052002;28;20053;-66
2023/10/19 12:08:49;;;;;;;0.80;0.70;;;21.50;57.30;;;;;;5051960;28;19966;-69
2023/10/19 12:11:16;;;;;;;;;;;21.50;58.00;;;;;;5052759;28;20037;-67
2023/10/19 12:13:43;;;;;;;0.43;0.40;;;21.40;57.60;;;;;;5053089;28;20000;-69
2023/10/19 12:18:55;;;;;;;0.38;0.38;;;21.40;58.70;;;;;;5051932;28;20414;-66
2023/10/19 12:21:27;;;;;;;;;;;21.40;59.10;;;;;;5051089;28;20041;-67
2023/10/19 12:23:55;;;;;;;1.02;0.63;;;21.40;58.90;;;;;;5051223;28;19980;-69
2023/10/19 12:26:21;;;;;;;0.80;0.50;;;21.40;58.90;;;;;;5052188;28;20036;-66
2023/10/19 12:28:47;;;;;;;;;;;21.40;59.00;;;;;;5052191;28;20443;-67
2023/10/19 12:31:18;;;;;;;1.67;0.95;;;21.40;59.10;;;;;;5050655;28;19988;-67
2023/10/19 12:33:44;;;;;;;1.20;0.93;;;21.40;59.40;;;;;;5051165;28;20049;-69
2023/10/19 12:38:57;;;;;;;1.58;1.00;;;21.40;59.50;;;;;;5051582;28;20079;-66
2023/10/19 12:41:24;;;;;;;0.82;0.60;;;21.50;60.10;;;;;;5050256;28;20037;-67
2023/10/19 12:46:36;;;;;;;2.58;0.85;;;21.50;59.70;;;;;;5052301;28;20547;-67
2023/10/19 12:49:08;;;;;;;3.60;0.35;;;21.60;60.00;;;;;;5051333;28;20067;-67
2023/10/19 12:51:34;;;;;;;2.95;1.23;;;21.60;60.10;;;;;;5051565;28;20048;-68
2023/10/19 12:54:03;;;;;;;1.85;1.15;;;21.50;60.60;;;;;;5051108;28;20080;-67
2023/10/19 12:56:33;;;;;;;2.75;1.23;;;21.50;60.40;;;;;;5035389;28;20053;-68
2023/10/19 12:58:59;;;;;;;0.70;0.50;;;21.60;59.90;;;;;;5032403;28;20026;-67
2023/10/19 13:01:27;;;;;;;1.83;0.75;;;21.50;60.30;;;;;;5030485;28;20478;-67
2023/10/19 13:03:53;;;;;;;2.28;0.95;;;21.50;60.80;;;;;;5031013;28;20033;-67
2023/10/19 13:06:20;;;;;;;;;;;21.50;60.70;;;;;;5031243;28;20033;-67
2023/10/19 13:08:46;;;;;;;2.42;1.13;;;21.50;60.60;;;;;;5031264;28;19912;-67
2023/10/19 13:11:18;;;;;;;1.30;0.55;;;21.60;60.70;;;;;;5030109;28;20034;-68
2023/10/19 13:13:45;;;;;;;1.08;0.80;;;21.60;61.10;;;;;;5032330;28;20034;-67
2023/10/19 13:16:11;;;;;;;0.60;0.43;;;21.60;60.90;;;;;;5030688;28;20069;-67
2023/10/19 13:18:40;;;;;;;;;;;21.60;61.00;;;;;;5031823;28;20030;-67
2023/10/19 13:21:09;;;;;;;0.52;0.52;;;21.50;61.10;;;;;;5031525;28;19921;-67
2023/10/19 13:23:36;;;;;;;1.80;0.57;;;21.50;60.30;;;;;;5032138;28;20079;-67
2023/10/19 13:26:09;;;;;;;0.93;0.50;;;21.50;60.70;;;;;;5030378;28;20043;-67
2023/10/19 13:28:38;;;;;;;1.20;0.65;;;21.50;61.50;;;;;;5032280;28;20025;-67
2023/10/19 13:31:04;;;;;;;1.50;0.68;;;21.40;61.20;;;;;;5029963;28;20562;-67
2023/10/19 13:33:31;;;;;;;;;;;21.30;62.60;;;;;;5032736;28;20026;-68
2023/10/19 13:35:58;;;;;;;1.42;0.77;;;21.30;62.50;;;;;;5031560;28;19928;-67
2023/10/19 13:38:24;;;;;;;0.50;0.30;;;21.30;63.20;;;;;;5036436;28;20033;-67
2023/10/19 13:40:50;;;;;;;;;;;21.30;63.60;;;;;;5035612;28;20099;-67
2023/10/19 13:43:19;;;;;;;2.45;0.77;;;21.20;63.50;;;;;;5038079;28;19971;-67
2023/10/19 13:45:47;;;;;;;3.03;0.68;;;21.20;63.90;;;;;;5033302;28;20394;-67
2023/10/19 13:48:14;;;;;;;0.85;0.40;;;21.10;64.60;;;;;;5034591;28;20057;-67
2023/10/19 13:51:15;;;;;;;1.63;0.47;;;21.00;64.40;;;;;;5038434;28;20068;-67
2023/10/19 13:53:42;;;;;;;0.82;0.45;;;21.00;63.70;;;;;;5055549;28;20509;-67
2023/10/19 13:56:12;;;;;;;1.08;0.70;;;21.00;64.20;;;;;;5055250;28;20041;-67
2023/10/19 13:58:38;;;;;;;0.82;0.52;;;20.90;64.80;;;;;;5054522;28;20494;-67
2023/10/19 14:01:25;;;;;;;1.25;0.88;;;20.90;65.20;;;;;;5053283;28;20048;-67
2023/10/19 14:03:55;;;;;;;1.15;0.63;;;21.00;65.20;;;;;;5054994;28;20498;-67
2023/10/19 14:06:22;;;;;;;2.40;0.85;;;21.00;65.30;;;;;;5053510;28;20090;-67